createdAt,value
2019-03-06T00:00:31.952Z,84.17
2019-03-06T00:02:58.484Z,84.32
2019-03-06T00:05:26.647Z,84.67
2019-03-06T00:07:53.456Z,84.77
2019-03-06T00:10:22.653Z,84.60
2019-03-06T00:12:49.144Z,84.69
2019-03-06T00:15:15.686Z,84.80
2019-03-06T00:17:42.367Z,85.17
2019-03-06T00:20:09.063Z,85.46
2019-03-06T00:22:35.576Z,85.89
2019-03-06T00:25:02.284Z,86.17
2019-03-06T00:27:28.835Z,86.32
2019-03-06T00:29:55.613Z,86.20
2019-03-06T00:32:22.182Z,86.22
2019-03-06T00:34:49.650Z,86.18
2019-03-06T00:37:16.206Z,86.08
2019-03-06T00:39:58.365Z,86.12
2019-03-06T00:42:25.091Z,86.24
2019-03-06T00:44:51.913Z,86.28
2019-03-06T00:47:18.633Z,86.15
2019-03-06T00:49:45.202Z,86.32
2019-03-06T00:52:11.772Z,86.47
2019-03-06T00:54:38.439Z,86.61
2019-03-06T00:57:05.127Z,87.09
2019-03-06T00:59:31.716Z,87.57
2019-03-06T01:01:58.606Z,87.68
2019-03-06T01:04:25.383Z,87.64
2019-03-06T01:06:52.113Z,87.65
2019-03-06T01:09:18.607Z,87.45
2019-03-06T01:11:45.163Z,87.74
2019-03-06T01:14:11.977Z,87.74
2019-03-06T01:16:38.947Z,87.72
2019-03-06T01:19:05.593Z,88.00
2019-03-06T01:21:32.127Z,87.96
2019-03-06T01:23:58.842Z,88.09
2019-03-06T01:26:25.545Z,88.29
2019-03-06T01:28:52.188Z,88.62
2019-03-06T01:31:18.915Z,88.63
2019-03-06T01:34:06.557Z,88.69
2019-03-06T01:36:52.795Z,88.74
2019-03-06T01:39:29.262Z,88.50
2019-03-06T01:42:03.980Z,88.38
2019-03-06T01:44:35.130Z,88.59
2019-03-06T01:47:01.747Z,88.23
2019-03-06T01:49:28.423Z,88.13
2019-03-06T01:51:54.911Z,88.30
2019-03-06T01:54:21.460Z,88.43
2019-03-06T01:56:48.237Z,88.21
2019-03-06T01:59:14.788Z,88.20
2019-03-06T02:01:41.441Z,88.32
2019-03-06T02:04:07.959Z,88.61
2019-03-06T02:06:34.519Z,88.46
2019-03-06T02:09:01.119Z,88.21
2019-03-06T02:11:27.774Z,87.56
2019-03-06T02:13:54.627Z,87.38
2019-03-06T02:16:21.162Z,86.96
2019-03-06T02:18:47.705Z,86.58
2019-03-06T02:21:15.286Z,86.22
2019-03-06T02:23:41.893Z,85.97
2019-03-06T02:26:08.362Z,85.81
2019-03-06T02:28:34.848Z,86.02
2019-03-06T02:31:02.639Z,85.76
2019-03-06T02:33:29.452Z,85.86
2019-03-06T02:35:56.001Z,86.07
2019-03-06T02:38:22.678Z,86.19
2019-03-06T02:40:49.197Z,86.23
2019-03-06T02:43:15.763Z,86.38
2019-03-06T02:45:42.377Z,86.45
2019-03-06T02:48:09.012Z,86.38
2019-03-06T02:50:35.510Z,86.63
2019-03-06T02:53:02.361Z,86.67
2019-03-06T02:55:30.514Z,86.72
2019-03-06T02:58:10.741Z,86.80
2019-03-06T03:00:49.889Z,87.14
2019-03-06T03:03:45.128Z,87.00
2019-03-06T03:06:22.975Z,86.75
2019-03-06T03:08:49.531Z,86.85
2019-03-06T03:11:16.316Z,86.69
2019-03-06T03:13:43.132Z,86.91
2019-03-06T03:16:09.809Z,87.29
2019-03-06T03:18:37.076Z,87.65
2019-03-06T03:21:03.780Z,87.41
2019-03-06T03:23:30.385Z,87.39
2019-03-06T03:25:56.968Z,87.24
2019-03-06T03:28:23.803Z,87.20
2019-03-06T03:30:50.569Z,87.15
2019-03-06T03:33:17.292Z,87.06
2019-03-06T03:35:43.872Z,87.12
2019-03-06T03:38:10.478Z,87.23
2019-03-06T03:40:37.005Z,87.09
2019-03-06T03:43:03.662Z,86.94
2019-03-06T03:45:30.227Z,87.08
2019-03-06T03:47:56.752Z,86.95
2019-03-06T03:50:23.582Z,86.85
2019-03-06T03:52:50.180Z,87.10
2019-03-06T03:55:16.910Z,87.02
2019-03-06T03:57:43.849Z,87.24
2019-03-06T04:00:11.682Z,87.24
2019-03-06T04:02:39.360Z,87.02
2019-03-06T04:05:06.833Z,86.86
2019-03-06T04:07:33.377Z,86.65
2019-03-06T04:10:00.521Z,86.14
2019-03-06T04:12:27.077Z,85.94
2019-03-06T04:14:53.627Z,86.12
2019-03-06T04:17:20.163Z,85.80
2019-03-06T04:19:46.738Z,85.82
2019-03-06T04:22:13.309Z,86.07
2019-03-06T04:24:40.023Z,86.10
2019-03-06T04:27:06.542Z,86.13
2019-03-06T04:29:33.473Z,86.28
2019-03-06T04:31:59.972Z,86.28
2019-03-06T04:34:26.511Z,86.27
2019-03-06T04:36:53.774Z,86.10
2019-03-06T04:39:20.354Z,86.20
2019-03-06T04:41:46.926Z,86.15
2019-03-06T04:44:13.404Z,86.14
2019-03-06T04:46:40.013Z,86.12
2019-03-06T04:49:06.838Z,86.17
2019-03-06T04:51:33.565Z,86.04
2019-03-06T04:54:00.117Z,86.03
2019-03-06T04:56:26.758Z,86.20
2019-03-06T04:58:53.620Z,85.89
2019-03-06T05:01:22.881Z,85.72
2019-03-06T05:03:50.654Z,85.68
2019-03-06T05:06:17.124Z,85.84
2019-03-06T05:08:43.669Z,86.19
2019-03-06T05:11:10.206Z,85.87
2019-03-06T05:13:36.771Z,85.61
2019-03-06T05:16:03.252Z,85.17
2019-03-06T05:18:34.385Z,85.12
2019-03-06T05:21:00.980Z,84.87
2019-03-06T05:23:27.723Z,84.32
2019-03-06T05:25:54.329Z,84.00
2019-03-06T05:28:20.818Z,83.90
2019-03-06T05:30:47.687Z,83.70
2019-03-06T05:33:14.385Z,83.81
2019-03-06T05:36:11.795Z,84.03
2019-03-06T05:38:45.859Z,84.35
2019-03-06T05:41:12.708Z,84.44
2019-03-06T05:43:39.764Z,84.68
2019-03-06T05:46:06.593Z,84.70
2019-03-06T05:48:33.378Z,85.02
2019-03-06T05:50:59.970Z,85.02
2019-03-06T05:53:26.679Z,85.02
2019-03-06T05:55:53.529Z,85.16
2019-03-06T05:58:20.116Z,85.50
2019-03-06T06:00:46.911Z,85.95
2019-03-06T06:03:14.507Z,86.28
2019-03-06T06:05:41.109Z,86.12
2019-03-06T06:08:07.808Z,85.85
2019-03-06T06:10:34.576Z,85.62
2019-03-06T06:13:02.715Z,85.18
2019-03-06T06:15:29.333Z,85.13
2019-03-06T06:17:56.345Z,85.15
2019-03-06T06:20:23.006Z,85.06
2019-03-06T06:23:09.269Z,84.99
2019-03-06T06:25:36.962Z,84.92
2019-03-06T06:28:03.886Z,84.73
2019-03-06T06:30:30.616Z,84.62
2019-03-06T06:32:57.146Z,84.54
2019-03-06T06:35:24.127Z,84.53
2019-03-06T06:37:51.137Z,84.54
2019-03-06T06:40:20.534Z,84.34
2019-03-06T06:42:47.291Z,84.20
2019-03-06T06:45:15.400Z,83.88
2019-03-06T06:48:19.985Z,83.69
2019-03-06T06:51:09.818Z,83.82
2019-03-06T06:53:47.722Z,83.29
2019-03-06T06:56:56.537Z,83.07
2019-03-06T06:59:33.450Z,83.30
2019-03-06T07:02:42.601Z,82.98
2019-03-06T07:05:48.092Z,83.00
2019-03-06T07:08:32.707Z,82.67
2019-03-06T07:11:19.082Z,82.12
2019-03-06T07:14:17.560Z,81.82
2019-03-06T07:16:57.554Z,81.54
2019-03-06T07:19:40.304Z,82.02
2019-03-06T07:22:23.343Z,81.68
2019-03-06T07:25:07.007Z,81.72
2019-03-06T07:27:41.943Z,81.38
2019-03-06T07:30:38.045Z,81.41
2019-03-06T07:33:24.570Z,81.22
2019-03-06T07:36:20.939Z,81.14
2019-03-06T07:38:50.687Z,81.18
2019-03-06T07:41:55.206Z,80.85
2019-03-06T07:44:48.202Z,80.97
2019-03-06T07:47:34.678Z,80.66
2019-03-06T07:50:19.376Z,80.38
2019-03-06T07:54:01.484Z,80.25
2019-03-06T07:56:32.096Z,80.62
2019-03-06T07:58:58.806Z,80.51
2019-03-06T08:01:28.979Z,80.56
2019-03-06T08:04:01.422Z,80.28
2019-03-06T08:06:28.166Z,79.87
2019-03-06T08:08:54.831Z,80.16
2019-03-06T08:11:28.414Z,80.16
2019-03-06T08:14:06.807Z,79.46
2019-03-06T08:16:39.376Z,79.58
2019-03-06T08:19:24.690Z,78.79
2019-03-06T08:22:04.148Z,78.84
2019-03-06T08:24:48.563Z,78.39
2019-03-06T08:27:16.224Z,77.80
2019-03-06T08:29:43.074Z,77.64
2019-03-06T08:32:20.218Z,76.53
2019-03-06T08:34:46.793Z,76.04
2019-03-06T08:37:13.512Z,76.47
2019-03-06T08:39:40.222Z,76.01
2019-03-06T08:42:11.869Z,76.02
2019-03-06T08:44:39.834Z,75.61
2019-03-06T08:47:24.863Z,75.43
2019-03-06T08:50:26.068Z,75.39
2019-03-06T08:53:10.792Z,72.74
2019-03-06T08:56:04.935Z,70.86
2019-03-06T08:58:49.892Z,69.26
2019-03-06T09:02:01.541Z,70.35
2019-03-06T09:04:41.658Z,69.59
2019-03-06T09:07:28.005Z,68.87
2019-03-06T09:10:36.081Z,67.12
2019-03-06T09:13:22.805Z,66.28
2019-03-06T09:16:06.079Z,65.51
2019-03-06T09:18:56.000Z,64.51
2019-03-06T09:21:51.437Z,64.74
2019-03-06T09:24:30.091Z,64.89
2019-03-06T09:27:06.701Z,64.21
2019-03-06T09:29:51.257Z,63.33
2019-03-06T09:32:30.056Z,63.51
2019-03-06T09:35:11.125Z,64.28
2019-03-06T09:38:11.000Z,64.13
2019-03-06T09:41:05.850Z,64.03
2019-03-06T09:43:50.660Z,62.89
2019-03-06T09:46:23.026Z,60.63
2019-03-06T09:49:11.842Z,59.00
2019-03-06T09:52:03.551Z,59.79
2019-03-06T09:54:48.373Z,59.68
2019-03-06T09:57:29.733Z,59.87
2019-03-06T10:00:16.002Z,59.54
2019-03-06T10:03:05.341Z,59.80
2019-03-06T10:05:51.629Z,59.63
2019-03-06T10:08:52.796Z,60.13
2019-03-06T10:11:42.007Z,60.09
2019-03-06T10:14:16.942Z,60.38
2019-03-06T10:16:59.679Z,60.40
2019-03-06T10:19:38.682Z,59.94
2019-03-06T10:22:05.433Z,59.27
2019-03-06T10:24:32.111Z,58.10
2019-03-06T10:26:59.956Z,57.96
2019-03-06T10:29:27.878Z,58.13
2019-03-06T10:31:54.732Z,58.21
2019-03-06T10:34:21.763Z,58.77
2019-03-06T10:36:48.344Z,59.08
2019-03-06T10:39:16.108Z,59.34
2019-03-06T10:41:42.911Z,58.72
2019-03-06T10:44:10.283Z,58.90
2019-03-06T10:46:37.185Z,58.91
2019-03-06T10:49:04.032Z,59.92
2019-03-06T10:51:31.146Z,60.15
2019-03-06T10:53:58.488Z,59.76
2019-03-06T10:56:25.464Z,60.92
2019-03-06T10:58:54.842Z,61.67
2019-03-06T11:01:25.202Z,61.53
2019-03-06T11:04:17.495Z,61.06
2019-03-06T11:06:44.099Z,60.04
2019-03-06T11:09:10.902Z,60.97
2019-03-06T11:11:37.811Z,60.60
2019-03-06T11:14:06.355Z,60.56
2019-03-06T11:16:35.547Z,60.90
2019-03-06T11:19:02.255Z,61.95
2019-03-06T11:21:29.130Z,61.42
2019-03-06T11:23:58.095Z,61.67
2019-03-06T11:26:25.168Z,61.27
2019-03-06T11:28:52.424Z,60.75
2019-03-06T11:31:19.427Z,59.21
2019-03-06T11:33:46.371Z,59.44
2019-03-06T11:36:13.360Z,58.98
2019-03-06T11:38:44.382Z,59.96
2019-03-06T11:41:10.963Z,60.05
2019-03-06T11:43:38.148Z,58.05
2019-03-06T11:46:05.967Z,58.65
2019-03-06T11:48:32.622Z,59.59
2019-03-06T11:51:05.560Z,60.26
2019-03-06T11:53:34.815Z,59.89
2019-03-06T11:56:02.030Z,59.58
2019-03-06T11:58:28.841Z,58.47
2019-03-06T12:00:55.697Z,58.52
2019-03-06T12:03:22.471Z,58.38
2019-03-06T12:05:49.627Z,58.64
2019-03-06T12:08:19.245Z,58.69
2019-03-06T12:10:46.704Z,59.21
2019-03-06T12:13:14.338Z,59.21
2019-03-06T12:15:42.287Z,59.04
2019-03-06T12:18:09.008Z,59.72
2019-03-06T12:20:35.715Z,59.70
2019-03-06T12:23:03.748Z,60.25
2019-03-06T12:25:30.923Z,59.65
2019-03-06T12:27:57.634Z,59.99
2019-03-06T12:30:24.364Z,59.42
2019-03-06T12:32:51.549Z,58.85
2019-03-06T12:35:18.680Z,58.23
2019-03-06T12:37:47.221Z,56.74
2019-03-06T12:40:15.490Z,57.38
2019-03-06T12:42:42.156Z,56.64
2019-03-06T12:45:11.782Z,57.17
2019-03-06T12:47:42.595Z,58.46
2019-03-06T12:50:12.468Z,58.24
2019-03-06T12:52:39.827Z,58.61
2019-03-06T12:55:07.503Z,59.17
2019-03-06T12:57:34.246Z,59.12
2019-03-06T13:00:02.942Z,59.21
2019-03-06T13:02:29.489Z,58.65
2019-03-06T13:04:56.755Z,59.06
2019-03-06T13:07:23.504Z,59.61
2019-03-06T13:09:50.103Z,59.65
2019-03-06T13:12:16.790Z,59.92
2019-03-06T13:14:43.662Z,60.13
2019-03-06T13:17:10.405Z,60.38
2019-03-06T13:19:36.922Z,60.64
2019-03-06T13:22:11.114Z,60.37
2019-03-06T13:24:37.871Z,60.45
2019-03-06T13:27:06.851Z,60.90
2019-03-06T13:29:36.419Z,61.18
2019-03-06T13:32:11.489Z,62.04
2019-03-06T13:34:50.623Z,61.33
2019-03-06T13:37:16.633Z,61.70
2019-03-06T13:39:44.052Z,60.81
2019-03-06T13:42:18.845Z,61.50
2019-03-06T13:44:45.872Z,61.35
2019-03-06T13:47:12.466Z,61.51
2019-03-06T13:49:43.859Z,61.23
2019-03-06T13:52:11.920Z,61.33
2019-03-06T13:54:38.626Z,61.29
2019-03-06T13:57:05.523Z,60.63
2019-03-06T13:59:32.211Z,60.79
2019-03-06T14:01:59.065Z,60.47
2019-03-06T14:04:26.277Z,60.46
2019-03-06T14:06:55.494Z,60.22
2019-03-06T14:09:23.373Z,60.55
2019-03-06T14:11:51.820Z,60.29
2019-03-06T14:14:18.535Z,60.34
2019-03-06T14:16:45.226Z,61.12
2019-03-06T14:19:12.366Z,60.50
2019-03-06T14:21:41.112Z,60.69
2019-03-06T14:24:07.947Z,61.27
2019-03-06T14:26:35.145Z,60.90
2019-03-06T14:29:02.267Z,61.34
2019-03-06T14:31:29.421Z,61.73
2019-03-06T14:33:57.959Z,61.74
2019-03-06T14:36:24.711Z,62.04
2019-03-06T14:38:53.478Z,62.47
2019-03-06T14:41:21.557Z,62.54
2019-03-06T14:43:48.616Z,63.03
2019-03-06T14:46:16.752Z,63.06
2019-03-06T14:48:46.605Z,63.61
2019-03-06T14:51:14.013Z,63.39
2019-03-06T14:53:41.874Z,63.52
2019-03-06T14:56:09.666Z,62.71
2019-03-06T14:58:39.312Z,63.59
2019-03-06T15:01:06.236Z,64.19
2019-03-06T15:03:33.126Z,64.21
2019-03-06T15:06:00.178Z,64.43
2019-03-06T15:08:26.975Z,64.24
2019-03-06T15:10:54.078Z,64.46
2019-03-06T15:13:20.929Z,64.84
2019-03-06T15:15:47.655Z,64.93
2019-03-06T15:18:14.497Z,65.29
2019-03-06T15:20:41.333Z,64.98
2019-03-06T15:23:09.281Z,65.25
2019-03-06T15:25:36.168Z,65.41
2019-03-06T15:28:02.931Z,65.03
2019-03-06T15:30:30.109Z,65.07
2019-03-06T15:32:57.379Z,64.68
2019-03-06T15:35:25.689Z,65.00
2019-03-06T15:37:52.674Z,64.65
2019-03-06T15:40:22.359Z,64.63
2019-03-06T15:42:50.004Z,64.41
2019-03-06T15:45:21.481Z,64.00
2019-03-06T15:47:48.475Z,64.02
2019-03-06T15:50:15.905Z,63.54
2019-03-06T15:52:42.914Z,63.74
2019-03-06T15:55:10.687Z,62.83
2019-03-06T15:57:37.698Z,62.48
2019-03-06T16:00:09.462Z,62.35
2019-03-06T16:02:36.238Z,61.88
2019-03-06T16:05:05.538Z,62.29
2019-03-06T16:07:32.449Z,62.50
2019-03-06T16:09:59.112Z,62.36
2019-03-06T16:12:26.613Z,62.06
2019-03-06T16:14:54.127Z,62.21
2019-03-06T16:17:21.481Z,62.00
2019-03-06T16:19:49.637Z,62.10
2019-03-06T16:22:19.325Z,61.80
2019-03-06T16:24:46.713Z,61.78
2019-03-06T16:27:14.155Z,62.29
2019-03-06T16:29:41.600Z,61.93
2019-03-06T16:32:09.392Z,61.48
2019-03-06T16:34:36.291Z,61.30
2019-03-06T16:37:03.539Z,61.39
2019-03-06T16:39:31.629Z,61.53
2019-03-06T16:41:58.469Z,61.24
2019-03-06T16:44:25.042Z,61.05
2019-03-06T16:46:52.157Z,60.78
2019-03-06T16:49:18.942Z,60.90
2019-03-06T16:51:45.489Z,60.50
2019-03-06T16:54:12.374Z,60.75
2019-03-06T16:56:39.186Z,61.07
2019-03-06T16:59:06.234Z,60.05
2019-03-06T17:01:33.152Z,60.29
2019-03-06T17:03:59.841Z,60.42
2019-03-06T17:06:27.913Z,60.36
2019-03-06T17:08:54.582Z,60.49
2019-03-06T17:11:21.887Z,60.34
2019-03-06T17:13:48.685Z,59.88
2019-03-06T17:16:15.626Z,59.25
2019-03-06T17:18:42.222Z,59.21
2019-03-06T17:21:09.145Z,58.63
2019-03-06T17:23:35.787Z,58.28
2019-03-06T17:26:02.539Z,57.50
2019-03-06T17:28:29.355Z,57.44
2019-03-06T17:30:55.966Z,57.42
2019-03-06T17:33:22.521Z,57.18
2019-03-06T17:35:50.438Z,57.05
2019-03-06T17:38:16.956Z,56.79
2019-03-06T17:40:44.902Z,57.12
2019-03-06T17:43:11.886Z,57.45
2019-03-06T17:45:38.601Z,57.73
2019-03-06T17:48:05.600Z,58.11
2019-03-06T17:50:32.315Z,58.17
2019-03-06T17:52:59.380Z,58.02
2019-03-06T17:55:26.426Z,58.29
2019-03-06T17:57:53.045Z,58.68
2019-03-06T18:00:23.392Z,58.89
2019-03-06T18:02:50.125Z,59.37
2019-03-06T18:05:16.953Z,59.48
2019-03-06T18:07:43.550Z,59.68
2019-03-06T18:10:11.206Z,60.07
2019-03-06T18:12:37.861Z,59.65
2019-03-06T18:15:07.316Z,59.36
2019-03-06T18:17:33.900Z,59.44
2019-03-06T18:20:00.813Z,58.97
2019-03-06T18:22:27.349Z,58.61
2019-03-06T18:24:54.086Z,58.12
2019-03-06T18:27:26.333Z,57.74
2019-03-06T18:29:49.197Z,57.32
2019-03-06T18:32:18.759Z,56.46
2019-03-06T18:34:46.769Z,55.64
2019-03-06T18:37:17.366Z,55.47
2019-03-06T18:39:44.369Z,55.43
2019-03-06T18:42:11.010Z,55.12
2019-03-06T18:44:38.978Z,54.60
2019-03-06T18:47:05.785Z,54.58
2019-03-06T18:49:33.068Z,54.91
2019-03-06T18:52:11.539Z,54.62
2019-03-06T18:54:39.354Z,54.91
2019-03-06T18:57:07.567Z,54.92
2019-03-06T18:59:34.555Z,54.85
2019-03-06T19:02:01.133Z,54.80
2019-03-06T19:04:29.050Z,54.97
2019-03-06T19:06:58.956Z,54.93
2019-03-06T19:09:26.447Z,55.43
2019-03-06T19:11:55.334Z,55.46
2019-03-06T19:14:23.234Z,56.18
2019-03-06T19:17:03.017Z,56.70
2019-03-06T19:19:29.816Z,56.52
2019-03-06T19:21:56.639Z,56.71
2019-03-06T19:24:23.636Z,56.56
2019-03-06T19:26:50.554Z,56.88
2019-03-06T19:29:17.432Z,56.92
2019-03-06T19:31:45.411Z,56.24
2019-03-06T19:34:13.421Z,56.57
2019-03-06T19:36:41.473Z,56.73
2019-03-06T19:39:08.642Z,56.64
2019-03-06T19:41:36.559Z,56.60
2019-03-06T19:44:03.533Z,57.21
2019-03-06T19:46:34.292Z,57.24
2019-03-06T19:49:01.823Z,57.23
2019-03-06T19:51:32.871Z,57.22
2019-03-06T19:53:59.843Z,57.12
2019-03-06T19:56:27.074Z,57.12
2019-03-06T19:59:02.982Z,57.37
2019-03-06T20:01:32.032Z,56.79
2019-03-06T20:04:00.817Z,56.75
2019-03-06T20:06:27.763Z,56.77
2019-03-06T20:08:55.832Z,56.77
2019-03-06T20:11:22.569Z,56.97
2019-03-06T20:13:49.598Z,57.20
2019-03-06T20:16:21.002Z,57.36
2019-03-06T20:18:48.442Z,57.68
2019-03-06T20:21:24.355Z,57.59
2019-03-06T20:23:51.724Z,57.40
2019-03-06T20:26:20.034Z,57.76
2019-03-06T20:28:51.314Z,58.18
2019-03-06T20:31:17.981Z,57.95
2019-03-06T20:33:45.552Z,58.29
2019-03-06T20:36:12.532Z,58.36
2019-03-06T20:38:39.623Z,58.32
2019-03-06T20:41:07.317Z,58.22
2019-03-06T20:43:44.578Z,58.26
2019-03-06T20:46:11.533Z,58.44
2019-03-06T20:48:38.931Z,58.39
2019-03-06T20:51:05.473Z,58.52
2019-03-06T20:53:33.027Z,58.83
2019-03-06T20:55:59.811Z,58.84
2019-03-06T20:58:26.730Z,58.83
2019-03-06T21:00:53.751Z,58.85
2019-03-06T21:03:20.723Z,59.15
2019-03-06T21:05:47.626Z,59.16
2019-03-06T21:08:15.570Z,59.17
2019-03-06T21:10:42.164Z,59.02
2019-03-06T21:13:09.277Z,58.96
2019-03-06T21:15:36.174Z,58.91
2019-03-06T21:18:37.802Z,58.84
2019-03-06T21:21:05.224Z,58.41
2019-03-06T21:24:01.538Z,58.54
2019-03-06T21:26:34.291Z,58.70
2019-03-06T21:29:06.941Z,58.54
2019-03-06T21:31:34.155Z,58.65
2019-03-06T21:34:01.656Z,58.79
2019-03-06T21:36:30.039Z,58.53
2019-03-06T21:38:59.834Z,58.15
2019-03-06T21:41:27.042Z,57.75
2019-03-06T21:43:55.939Z,57.74
2019-03-06T21:46:25.415Z,57.26
2019-03-06T21:48:54.098Z,57.56
2019-03-06T21:51:21.034Z,57.97
2019-03-06T21:53:51.755Z,57.90
2019-03-06T21:56:19.273Z,57.53
2019-03-06T21:58:47.986Z,57.73
2019-03-06T22:01:30.939Z,57.71
2019-03-06T22:03:59.516Z,57.73
2019-03-06T22:06:26.540Z,57.69
2019-03-06T22:08:53.557Z,57.42
2019-03-06T22:11:20.397Z,56.88
2019-03-06T22:13:48.252Z,57.23
2019-03-06T22:16:16.096Z,56.82
2019-03-06T22:18:44.756Z,56.76
2019-03-06T22:21:12.860Z,56.54
2019-03-06T22:23:45.711Z,56.70
2019-03-06T22:26:15.012Z,57.02
2019-03-06T22:28:43.122Z,56.54
2019-03-06T22:31:09.691Z,56.90
2019-03-06T22:33:41.583Z,57.20
2019-03-06T22:36:09.087Z,56.69
2019-03-06T22:38:36.912Z,56.35
2019-03-06T22:41:06.003Z,56.56
2019-03-06T22:43:33.231Z,56.52
2019-03-06T22:46:01.365Z,56.05
2019-03-06T22:48:28.538Z,56.43
2019-03-06T22:50:57.553Z,56.53
2019-03-06T22:53:32.511Z,56.12
2019-03-06T22:56:09.550Z,55.97
2019-03-06T22:58:42.527Z,56.03
2019-03-06T23:01:35.612Z,55.94
2019-03-06T23:04:13.238Z,56.01
2019-03-06T23:06:44.633Z,56.30
2019-03-06T23:09:29.330Z,56.56
2019-03-06T23:12:10.935Z,56.74
2019-03-06T23:14:44.152Z,56.79
2019-03-06T23:17:20.179Z,57.07
2019-03-06T23:19:55.125Z,57.21
2019-03-06T23:22:22.406Z,57.12
2019-03-06T23:25:01.028Z,57.15
2019-03-06T23:27:39.290Z,57.24
2019-03-06T23:30:24.277Z,57.63
2019-03-06T23:32:54.403Z,57.24
2019-03-06T23:35:32.821Z,57.25
2019-03-06T23:38:00.762Z,56.71
2019-03-06T23:40:27.944Z,56.96
2019-03-06T23:42:55.555Z,56.35
2019-03-06T23:45:29.328Z,56.18
2019-03-06T23:47:57.398Z,56.19
2019-03-06T23:50:31.901Z,56.13
2019-03-06T23:53:04.954Z,55.68
2019-03-06T23:55:32.639Z,55.49
2019-03-06T23:58:01.447Z,55.73
